createdAt,value
2019-03-29T00:01:36.563Z,33.13
2019-03-29T00:06:10.773Z,31.27
2019-03-29T00:10:45.111Z,32.93
2019-03-29T00:15:18.818Z,32.73
2019-03-29T00:19:51.387Z,33.10
2019-03-29T00:24:25.159Z,32.60
2019-03-29T00:28:58.338Z,33.70
2019-03-29T00:33:31.704Z,32.97
2019-03-29T00:38:24.606Z,33.63
2019-03-29T00:42:59.275Z,33.43
2019-03-29T00:47:32.651Z,32.00
2019-03-29T00:52:04.426Z,31.90
2019-03-29T00:56:38.980Z,31.63
2019-03-29T01:01:11.756Z,32.83
2019-03-29T01:06:03.845Z,31.50
2019-03-29T01:10:38.721Z,32.37
2019-03-29T01:15:14.224Z,32.87
2019-03-29T01:19:46.881Z,34.37
2019-03-29T01:24:20.906Z,35.13
2019-03-29T01:28:53.817Z,35.83
2019-03-29T01:33:27.179Z,36.00
2019-03-29T01:38:01.831Z,34.70
2019-03-29T01:42:35.110Z,32.73
2019-03-29T01:47:10.893Z,35.23
2019-03-29T01:52:06.336Z,36.93
2019-03-29T01:56:42.939Z,35.70
2019-03-29T02:01:14.371Z,36.27
2019-03-29T02:05:48.411Z,34.43
2019-03-29T02:10:23.106Z,35.53
2019-03-29T02:14:59.037Z,35.77
2019-03-29T02:19:32.439Z,35.80
2019-03-29T02:24:04.650Z,35.40
2019-03-29T02:28:39.030Z,37.60
2019-03-29T02:33:11.795Z,37.10
2019-03-29T02:37:46.453Z,36.47
2019-03-29T02:42:21.376Z,36.47
2019-03-29T02:46:54.275Z,36.70
2019-03-29T02:51:27.606Z,34.80
2019-03-29T02:56:20.929Z,33.10
2019-03-29T03:00:54.654Z,34.60
2019-03-29T03:05:28.085Z,33.47
2019-03-29T03:09:59.431Z,31.53
2019-03-29T03:14:32.091Z,31.87
2019-03-29T03:19:07.341Z,30.57
2019-03-29T03:23:39.073Z,32.23
2019-03-29T03:28:16.135Z,29.03
2019-03-29T03:32:51.000Z,35.20
2019-03-29T03:37:23.860Z,34.70
2019-03-29T03:41:58.975Z,36.23
2019-03-29T03:46:35.826Z,35.60
2019-03-29T03:51:09.261Z,36.23
2019-03-29T04:00:18.274Z,34.37
2019-03-29T04:04:51.851Z,33.27
2019-03-29T04:13:58.405Z,36.30
2019-03-29T04:18:31.948Z,35.43
2019-03-29T04:27:38.603Z,34.87
2019-03-29T04:32:11.629Z,27.90
2019-03-29T04:36:47.330Z,39.07
2019-03-29T04:41:19.469Z,36.93
2019-03-29T04:45:52.293Z,34.10
2019-03-29T04:50:26.491Z,32.90
2019-03-29T04:55:00.537Z,35.33
2019-03-29T04:59:34.764Z,34.53
2019-03-29T05:04:08.378Z,35.53
2019-03-29T05:08:39.206Z,32.97
2019-03-29T05:13:14.346Z,30.73
2019-03-29T05:17:48.539Z,38.07
2019-03-29T05:22:19.247Z,33.10
2019-03-29T05:26:53.876Z,34.90
2019-03-29T05:31:29.204Z,34.13
2019-03-29T05:35:59.430Z,34.30
2019-03-29T05:40:35.284Z,32.53
2019-03-29T05:45:09.147Z,32.67
2019-03-29T05:49:42.255Z,36.77
2019-03-29T05:54:15.975Z,29.47
2019-03-29T05:58:50.638Z,33.30
2019-03-29T06:03:45.988Z,33.97
2019-03-29T06:08:21.830Z,34.17
2019-03-29T06:12:54.520Z,33.13
2019-03-29T06:17:29.163Z,36.30
2019-03-29T06:22:02.382Z,27.20
2019-03-29T06:26:35.687Z,33.67
2019-03-29T06:31:09.335Z,32.20
2019-03-29T06:35:46.875Z,33.43
2019-03-29T06:40:22.089Z,33.40
2019-03-29T06:44:54.852Z,28.93
2019-03-29T06:49:29.027Z,29.07
2019-03-29T06:54:02.144Z,27.70
2019-03-29T06:58:34.757Z,21.60
2019-03-29T07:03:07.332Z,25.47
2019-03-29T07:07:44.557Z,23.80
2019-03-29T07:12:19.423Z,24.67
2019-03-29T07:16:52.758Z,22.27
2019-03-29T07:21:26.173Z,20.87
2019-03-29T07:26:01.012Z,20.70
2019-03-29T07:30:32.226Z,20.87
2019-03-29T07:35:07.296Z,18.40
2019-03-29T07:39:41.931Z,17.13
2019-03-29T07:44:15.539Z,15.13
2019-03-29T07:48:49.313Z,11.20
2019-03-29T07:53:22.388Z,11.30
2019-03-29T07:57:55.408Z,14.17
2019-03-29T08:02:31.187Z,14.73
2019-03-29T08:07:06.245Z,13.03
2019-03-29T08:11:46.064Z,13.63
2019-03-29T08:16:16.086Z,14.63
2019-03-29T08:25:42.339Z,14.17
2019-03-29T08:30:14.763Z,15.37
2019-03-29T08:34:52.486Z,15.83
2019-03-29T08:39:28.219Z,13.53
2019-03-29T08:44:00.199Z,13.90
2019-03-29T08:48:32.387Z,13.57
2019-03-29T08:53:04.271Z,14.90
2019-03-29T09:02:04.526Z,12.60
2019-03-29T09:06:52.589Z,13.10
2019-03-29T09:11:18.192Z,14.43
2019-03-29T09:15:52.279Z,15.20
2019-03-29T09:20:25.578Z,14.00
2019-03-29T09:25:00.842Z,14.80
2019-03-29T09:29:35.048Z,14.63
2019-03-29T09:34:11.769Z,14.03
2019-03-29T09:38:43.956Z,13.07
2019-03-29T09:43:19.561Z,14.47
2019-03-29T09:47:55.801Z,14.10
2019-03-29T09:52:28.831Z,12.27
2019-03-29T09:57:01.936Z,13.10
2019-03-29T10:01:35.204Z,12.60
2019-03-29T10:06:09.011Z,10.87
2019-03-29T10:10:43.271Z,10.60
2019-03-29T10:15:16.917Z,11.67
2019-03-29T10:19:52.199Z,11.90
2019-03-29T10:24:25.016Z,10.70
2019-03-29T10:29:00.140Z,10.83
2019-03-29T10:33:33.624Z,11.13
2019-03-29T10:38:04.741Z,10.20
2019-03-29T10:42:56.737Z,11.07
2019-03-29T10:47:20.153Z,10.03
2019-03-29T10:51:53.153Z,9.90
2019-03-29T10:56:33.885Z,10.57
2019-03-29T11:01:00.501Z,9.23
2019-03-29T11:05:34.573Z,9.87
2019-03-29T11:10:09.093Z,9.87
2019-03-29T11:14:42.899Z,10.53
2019-03-29T11:19:16.898Z,10.17
2019-03-29T11:23:52.100Z,11.03
2019-03-29T11:28:24.440Z,10.60
2019-03-29T11:32:57.351Z,12.70
2019-03-29T11:37:33.526Z,12.17
2019-03-29T11:42:05.222Z,12.20
2019-03-29T11:46:37.738Z,11.13
2019-03-29T11:55:42.544Z,11.10
2019-03-29T12:00:21.589Z,12.60
2019-03-29T12:04:55.598Z,11.43
2019-03-29T12:09:32.207Z,11.87
2019-03-29T12:14:05.250Z,10.60
2019-03-29T12:18:39.663Z,11.70
2019-03-29T12:23:14.018Z,10.97
2019-03-29T12:27:44.486Z,11.13
2019-03-29T12:32:21.755Z,11.00
2019-03-29T12:37:14.445Z,11.90
2019-03-29T12:41:49.695Z,11.67
2019-03-29T12:46:24.833Z,12.17
2019-03-29T12:51:00.818Z,11.43
2019-03-29T12:55:54.607Z,10.80
2019-03-29T13:00:33.005Z,10.80
2019-03-29T13:05:04.222Z,9.77
2019-03-29T13:09:39.581Z,9.10
2019-03-29T13:14:12.228Z,9.23
2019-03-29T13:18:44.443Z,11.37
2019-03-29T13:23:17.330Z,9.73
2019-03-29T13:32:24.397Z,10.57
2019-03-29T13:36:57.216Z,8.47
2019-03-29T13:41:32.753Z,11.43
2019-03-29T13:46:25.187Z,9.63
2019-03-29T13:50:59.946Z,7.93
2019-03-29T13:55:33.805Z,9.67
2019-03-29T14:00:06.393Z,8.90
2019-03-29T14:04:39.971Z,9.30
2019-03-29T14:09:14.018Z,10.33
2019-03-29T14:13:45.517Z,8.27
2019-03-29T14:18:21.248Z,8.97
2019-03-29T14:22:55.513Z,8.70
2019-03-29T14:27:28.502Z,6.07
2019-03-29T14:32:03.777Z,8.33
2019-03-29T14:36:40.533Z,7.67
2019-03-29T14:41:13.975Z,7.87
2019-03-29T14:45:44.764Z,9.23
2019-03-29T14:50:22.553Z,8.17
2019-03-29T14:55:18.516Z,8.70
2019-03-29T14:59:52.207Z,9.30
2019-03-29T15:04:24.851Z,7.50
2019-03-29T15:08:57.597Z,9.10
2019-03-29T15:13:30.184Z,8.27
2019-03-29T15:18:05.133Z,8.40
2019-03-29T15:22:40.131Z,10.33
2019-03-29T15:27:13.764Z,9.33
2019-03-29T15:31:49.298Z,10.53
2019-03-29T15:36:28.161Z,10.90
2019-03-29T15:41:02.272Z,10.47
2019-03-29T15:50:08.705Z,11.23
2019-03-29T15:54:42.267Z,11.57
2019-03-29T15:59:16.884Z,12.50
2019-03-29T16:03:50.309Z,12.10
2019-03-29T16:08:26.133Z,10.67
2019-03-29T16:13:08.446Z,9.03
2019-03-29T16:17:42.256Z,10.57
2019-03-29T16:22:16.979Z,9.53
2019-03-29T16:26:49.529Z,9.33
2019-03-29T16:31:27.475Z,9.50
2019-03-29T16:36:20.132Z,10.07
2019-03-29T16:40:54.738Z,11.23
2019-03-29T16:45:28.321Z,10.90
2019-03-29T16:50:40.901Z,11.33
2019-03-29T16:55:14.722Z,11.70
2019-03-29T16:59:48.944Z,9.50
2019-03-29T17:04:27.962Z,9.67
2019-03-29T17:09:01.011Z,10.47
2019-03-29T17:13:38.677Z,10.87
2019-03-29T17:18:08.246Z,10.10
2019-03-29T17:22:43.466Z,10.47
2019-03-29T17:27:17.239Z,11.67
2019-03-29T17:31:52.269Z,11.53
2019-03-29T17:36:28.129Z,11.83
2019-03-29T17:41:02.515Z,10.23
2019-03-29T17:50:08.888Z,12.70
2019-03-29T17:54:44.826Z,11.67
2019-03-29T17:59:19.176Z,12.93
2019-03-29T18:03:53.411Z,13.23
2019-03-29T18:08:27.625Z,11.07
2019-03-29T18:13:06.638Z,13.27
2019-03-29T18:17:40.313Z,14.60
2019-03-29T18:22:16.765Z,14.37
2019-03-29T18:26:47.267Z,14.67
2019-03-29T18:35:55.128Z,15.90
2019-03-29T18:40:35.183Z,16.17
2019-03-29T18:45:07.333Z,14.50
2019-03-29T18:49:42.205Z,15.63
2019-03-29T18:54:14.395Z,15.50
2019-03-29T18:58:48.186Z,15.07
2019-03-29T19:03:22.103Z,15.07
2019-03-29T19:07:54.419Z,15.90
2019-03-29T19:12:27.699Z,15.53
2019-03-29T19:17:01.548Z,16.30
2019-03-29T19:21:34.778Z,16.07
2019-03-29T19:26:10.687Z,15.50
2019-03-29T19:30:43.421Z,16.63
2019-03-29T19:35:17.214Z,16.30
2019-03-29T19:39:51.791Z,16.23
2019-03-29T19:44:47.729Z,17.00
2019-03-29T19:49:23.320Z,15.83
2019-03-29T19:54:18.330Z,15.83
2019-03-29T19:58:56.620Z,18.47
2019-03-29T20:03:30.371Z,17.83
2019-03-29T20:08:05.236Z,18.00
2019-03-29T20:12:36.324Z,15.70
2019-03-29T20:17:10.121Z,18.13
2019-03-29T20:21:42.883Z,17.67
2019-03-29T20:26:14.499Z,16.80
2019-03-29T20:30:47.521Z,16.73
2019-03-29T20:35:23.537Z,16.87
2019-03-29T20:39:54.952Z,17.57
2019-03-29T20:44:30.384Z,16.00
2019-03-29T20:49:04.443Z,16.40
2019-03-29T20:53:39.227Z,16.07
2019-03-29T20:58:15.831Z,17.73
2019-03-29T21:02:49.768Z,16.97
2019-03-29T21:07:23.848Z,17.03
2019-03-29T21:11:54.976Z,16.03
2019-03-29T21:16:30.962Z,17.33
2019-03-29T21:21:04.056Z,17.47
2019-03-29T21:25:34.656Z,17.63
2019-03-29T21:30:09.611Z,16.53
2019-03-29T21:34:43.663Z,16.70
2019-03-29T21:39:18.343Z,16.63
2019-03-29T21:43:51.658Z,17.53
2019-03-29T21:48:30.815Z,17.50
2019-03-29T21:57:35.341Z,17.27
2019-03-29T22:02:12.029Z,17.53
2019-03-29T22:07:04.503Z,17.50
2019-03-29T22:11:41.594Z,16.97
2019-03-29T22:16:13.922Z,17.43
2019-03-29T22:20:47.209Z,17.27
2019-03-29T22:29:52.077Z,17.27
2019-03-29T22:34:24.501Z,16.83
2019-03-29T22:38:55.848Z,16.83
2019-03-29T22:43:32.975Z,15.73
2019-03-29T22:48:05.422Z,16.47
2019-03-29T22:52:38.779Z,17.23
2019-03-29T22:57:11.581Z,16.23
2019-03-29T23:01:47.380Z,17.13
2019-03-29T23:10:53.070Z,17.73
2019-03-29T23:15:27.331Z,17.90
2019-03-29T23:24:33.124Z,19.27
2019-03-29T23:29:07.924Z,18.97
2019-03-29T23:33:42.215Z,17.83
2019-03-29T23:38:15.393Z,19.43
2019-03-29T23:42:50.529Z,18.97
2019-03-29T23:47:23.720Z,18.97
2019-03-29T23:51:57.837Z,20.03
2019-03-29T23:56:30.513Z,16.97
